createdAt,value
2018-09-11T00:00:35.261Z,5.47
2018-09-11T00:03:03.407Z,3.63
2018-09-11T00:05:31.717Z,4.30
2018-09-11T00:07:59.833Z,2.90
2018-09-11T00:10:28.217Z,6.10
2018-09-11T00:12:56.342Z,4.10
2018-09-11T00:15:24.602Z,3.00
2018-09-11T00:17:53.697Z,3.87
2018-09-11T00:20:21.975Z,4.03
2018-09-11T00:22:50.127Z,3.67
2018-09-11T00:25:18.451Z,6.83
2018-09-11T00:27:46.830Z,3.80
2018-09-11T00:30:15.092Z,7.40
2018-09-11T00:32:43.366Z,4.60
2018-09-11T00:35:11.640Z,4.77
2018-09-11T00:37:39.842Z,7.60
2018-09-11T00:40:08.032Z,3.97
2018-09-11T00:42:36.371Z,5.53
2018-09-11T00:45:04.812Z,5.93
2018-09-11T00:47:32.958Z,5.90
2018-09-11T00:50:01.117Z,4.47
2018-09-11T00:52:30.304Z,4.23
2018-09-11T00:54:58.551Z,4.77
2018-09-11T00:57:26.764Z,5.77
2018-09-11T00:59:54.863Z,7.53
2018-09-11T01:02:23.101Z,6.00
2018-09-11T01:04:51.356Z,4.13
2018-09-11T01:07:19.550Z,5.03
2018-09-11T01:09:47.855Z,4.33
2018-09-11T01:12:16.138Z,3.87
2018-09-11T01:14:44.458Z,2.30
2018-09-11T01:17:12.714Z,3.93
2018-09-11T01:19:41.007Z,4.63
2018-09-11T01:22:09.299Z,5.27
2018-09-11T01:24:37.521Z,4.97
2018-09-11T01:27:05.696Z,2.73
2018-09-11T01:29:33.844Z,3.63
2018-09-11T01:32:02.152Z,5.23
2018-09-11T01:34:30.384Z,4.30
2018-09-11T01:36:58.672Z,5.03
2018-09-11T01:39:26.885Z,3.70
2018-09-11T01:41:55.122Z,4.80
2018-09-11T01:44:23.376Z,6.00
2018-09-11T01:46:51.727Z,4.60
2018-09-11T01:49:19.914Z,5.03
2018-09-11T01:51:48.164Z,3.37
2018-09-11T01:54:16.411Z,4.67
2018-09-11T01:56:44.688Z,4.50
2018-09-11T01:59:12.989Z,3.20
2018-09-11T02:01:42.098Z,5.23
2018-09-11T02:04:10.248Z,6.80
2018-09-11T02:06:38.590Z,4.67
2018-09-11T02:09:10.258Z,4.03
2018-09-11T02:11:38.500Z,5.20
2018-09-11T02:14:06.791Z,5.63
2018-09-11T02:16:34.947Z,6.40
2018-09-11T02:19:03.923Z,4.47
2018-09-11T02:21:32.084Z,5.40
2018-09-11T02:24:00.384Z,6.70
2018-09-11T02:26:28.524Z,9.23
2018-09-11T02:28:56.642Z,8.57
2018-09-11T02:31:24.957Z,6.53
2018-09-11T02:33:53.188Z,5.53
2018-09-11T02:36:22.282Z,6.60
2018-09-11T02:38:50.556Z,3.70
2018-09-11T02:41:19.350Z,5.37
2018-09-11T02:43:47.626Z,4.60
2018-09-11T02:46:15.845Z,5.23
2018-09-11T02:48:45.221Z,6.10
2018-09-11T02:51:13.345Z,5.03
2018-09-11T02:53:41.520Z,5.97
2018-09-11T02:56:09.754Z,4.67
2018-09-11T02:58:38.019Z,5.13
2018-09-11T03:01:06.213Z,6.37
2018-09-11T03:03:34.552Z,6.67
2018-09-11T03:06:03.195Z,6.50
2018-09-11T03:08:31.407Z,5.40
2018-09-11T03:10:59.565Z,6.87
2018-09-11T03:13:27.883Z,7.03
2018-09-11T03:15:55.992Z,8.07
2018-09-11T03:18:24.111Z,5.07
2018-09-11T03:20:52.289Z,5.30
2018-09-11T03:23:20.544Z,5.63
2018-09-11T03:25:48.748Z,6.47
2018-09-11T03:28:17.094Z,5.30
2018-09-11T03:30:45.226Z,9.50
2018-09-11T03:33:14.123Z,7.27
2018-09-11T03:35:42.405Z,4.50
2018-09-11T03:38:10.549Z,6.77
2018-09-11T03:40:39.238Z,7.17
2018-09-11T03:43:07.593Z,10.73
2018-09-11T03:45:35.871Z,5.73
2018-09-11T03:48:04.237Z,6.77
2018-09-11T03:50:32.731Z,6.23
2018-09-11T03:53:01.048Z,6.60
2018-09-11T03:55:29.341Z,7.93
2018-09-11T03:57:57.741Z,4.80
2018-09-11T04:00:26.068Z,4.07
2018-09-11T04:02:54.292Z,6.13
2018-09-11T04:05:22.717Z,5.93
2018-09-11T04:07:50.950Z,5.80
2018-09-11T04:10:19.512Z,8.50
2018-09-11T04:12:47.741Z,6.40
2018-09-11T04:15:16.072Z,6.23
2018-09-11T04:17:44.285Z,6.07
2018-09-11T04:20:12.607Z,5.00
2018-09-11T04:22:40.765Z,7.17
2018-09-11T04:25:09.159Z,5.87
2018-09-11T04:27:37.491Z,5.33
2018-09-11T04:30:05.801Z,6.53
2018-09-11T04:32:34.209Z,8.03
2018-09-11T04:35:02.482Z,6.63
2018-09-11T04:37:30.646Z,6.97
2018-09-11T04:39:58.924Z,8.00
2018-09-11T04:42:27.127Z,7.67
2018-09-11T04:44:55.916Z,8.77
2018-09-11T04:47:24.186Z,6.83
2018-09-11T04:49:52.358Z,10.50
2018-09-11T04:52:20.709Z,9.13
2018-09-11T04:54:48.960Z,10.97
2018-09-11T04:57:17.756Z,6.60
2018-09-11T04:59:45.936Z,8.00
2018-09-11T05:02:14.300Z,6.37
2018-09-11T05:04:42.649Z,7.67
2018-09-11T05:07:10.799Z,9.53
2018-09-11T05:09:38.968Z,5.63
2018-09-11T05:12:07.208Z,6.77
2018-09-11T05:14:35.569Z,7.43
2018-09-11T05:17:04.033Z,9.60
2018-09-11T05:19:32.152Z,7.63
2018-09-11T05:22:00.592Z,6.87
2018-09-11T05:24:28.699Z,9.67
2018-09-11T05:26:57.003Z,8.93
2018-09-11T05:29:25.482Z,9.30
2018-09-11T05:31:53.641Z,8.07
2018-09-11T05:34:22.285Z,9.37
2018-09-11T05:36:50.678Z,6.87
2018-09-11T05:39:18.986Z,8.13
2018-09-11T05:41:47.332Z,9.73
2018-09-11T05:44:15.444Z,10.03
2018-09-11T05:46:43.730Z,9.40
2018-09-11T05:49:11.859Z,8.73
2018-09-11T05:51:40.757Z,7.77
2018-09-11T05:54:09.295Z,9.40
2018-09-11T05:56:37.748Z,8.60
2018-09-11T05:59:06.180Z,12.47
2018-09-11T06:01:34.525Z,8.93
2018-09-11T06:04:02.701Z,10.50
2018-09-11T06:06:30.773Z,13.50
2018-09-11T06:08:58.901Z,13.07
2018-09-11T06:11:27.863Z,12.87
2018-09-11T06:13:55.974Z,9.40
2018-09-11T06:16:24.728Z,10.40
2018-09-11T06:18:52.940Z,9.63
2018-09-11T06:21:21.403Z,9.63
2018-09-11T06:23:49.549Z,8.97
2018-09-11T06:26:17.899Z,12.47
2018-09-11T06:28:46.053Z,10.27
2018-09-11T06:31:14.253Z,9.33
2018-09-11T06:33:42.623Z,10.57
2018-09-11T06:36:10.855Z,11.40
2018-09-11T06:38:39.289Z,11.63
2018-09-11T06:41:07.439Z,10.77
2018-09-11T06:43:35.723Z,8.70
2018-09-11T06:46:03.893Z,13.33
2018-09-11T06:48:32.724Z,10.07
2018-09-11T06:51:00.896Z,9.60
2018-09-11T06:53:29.013Z,9.23
2018-09-11T06:55:57.132Z,8.67
2018-09-11T06:58:25.419Z,7.03
2018-09-11T07:00:53.740Z,9.43
2018-09-11T07:03:22.369Z,7.27
2018-09-11T07:05:50.682Z,8.27
2018-09-11T07:08:18.983Z,11.03
2018-09-11T07:10:47.334Z,6.47
2018-09-11T07:13:15.688Z,8.67
2018-09-11T07:15:43.850Z,7.43
2018-09-11T07:18:12.150Z,8.60
2018-09-11T07:20:40.330Z,8.43
2018-09-11T07:23:08.480Z,9.33
2018-09-11T07:25:36.634Z,11.97
2018-09-11T07:28:04.942Z,5.90
2018-09-11T07:30:33.245Z,8.90
2018-09-11T07:33:01.579Z,5.93
2018-09-11T07:35:30.370Z,6.73
2018-09-11T07:37:58.786Z,7.30
2018-09-11T07:40:26.795Z,7.37
2018-09-11T07:42:54.948Z,6.83
2018-09-11T07:45:23.164Z,9.60
2018-09-11T07:47:51.261Z,7.90
2018-09-11T07:50:19.467Z,5.47
2018-09-11T07:52:47.641Z,8.73
2018-09-11T07:55:15.799Z,5.83
2018-09-11T07:57:44.053Z,7.47
2018-09-11T08:00:12.079Z,6.27
2018-09-11T08:02:40.183Z,10.47
2018-09-11T08:05:08.412Z,5.97
2018-09-11T08:07:36.687Z,6.70
2018-09-11T08:10:04.905Z,6.73
2018-09-11T08:12:33.103Z,9.47
2018-09-11T08:15:01.364Z,6.27
2018-09-11T08:17:29.581Z,12.57
2018-09-11T08:19:57.922Z,7.87
2018-09-11T08:22:26.066Z,7.27
2018-09-11T08:24:54.189Z,6.10
2018-09-11T08:27:22.346Z,7.43
2018-09-11T08:29:50.679Z,9.33
2018-09-11T08:32:18.865Z,4.07
2018-09-11T08:34:47.078Z,6.40
2018-09-11T08:37:15.228Z,17.07
2018-09-11T08:39:43.459Z,5.07
2018-09-11T08:42:11.674Z,5.37
2018-09-11T08:44:39.922Z,5.23
2018-09-11T08:47:08.098Z,5.83
2018-09-11T08:49:36.382Z,5.50
2018-09-11T08:52:05.809Z,5.93
2018-09-11T08:54:33.902Z,4.97
2018-09-11T08:57:02.074Z,8.53
2018-09-11T08:59:30.835Z,6.33
2018-09-11T09:01:59.039Z,3.40
2018-09-11T09:04:27.287Z,5.57
2018-09-11T09:06:55.503Z,4.40
2018-09-11T09:09:23.779Z,4.75
2018-09-11T09:11:51.926Z,3.55
2018-09-11T09:14:20.259Z,5.30
2018-09-11T09:16:48.427Z,4.15
2018-09-11T09:19:16.745Z,2.92
2018-09-11T09:21:44.915Z,2.95
2018-09-11T09:24:13.018Z,3.85
2018-09-11T09:26:41.167Z,4.78
2018-09-11T09:29:09.396Z,2.67
2018-09-11T09:31:37.585Z,5.92
2018-09-11T09:34:05.991Z,3.70
2018-09-11T09:36:34.349Z,7.00
2018-09-11T09:39:03.900Z,4.58
2018-09-11T09:41:32.041Z,5.78
2018-09-11T09:44:00.178Z,4.00
2018-09-11T09:46:28.344Z,7.97
2018-09-11T09:48:56.683Z,3.22
2018-09-11T09:51:24.913Z,5.80
2018-09-11T09:53:53.125Z,2.65
2018-09-11T09:56:21.439Z,3.15
2018-09-11T09:58:49.681Z,3.77
2018-09-11T10:01:23.646Z,3.10
2018-09-11T10:03:51.975Z,4.90
2018-09-11T10:06:20.104Z,6.05
2018-09-11T10:08:48.269Z,4.80
2018-09-11T10:11:16.476Z,3.30
2018-09-11T10:13:44.707Z,4.05
2018-09-11T10:16:12.921Z,4.08
2018-09-11T10:18:41.061Z,4.35
2018-09-11T10:21:09.334Z,4.37
2018-09-11T10:23:37.505Z,3.58
2018-09-11T10:26:05.803Z,3.00
2018-09-11T10:28:34.501Z,2.67
2018-09-11T10:31:02.858Z,2.67
2018-09-11T10:33:31.103Z,2.92
2018-09-11T10:35:59.405Z,3.30
2018-09-11T10:38:28.502Z,3.70
2018-09-11T10:40:56.681Z,2.30
2018-09-11T10:43:25.016Z,2.62
2018-09-11T10:45:53.216Z,2.72
2018-09-11T10:48:21.332Z,1.92
2018-09-11T10:50:49.624Z,3.27
2018-09-11T10:53:17.873Z,3.60
2018-09-11T10:55:46.022Z,2.02
2018-09-11T10:58:14.275Z,4.58
2018-09-11T11:00:42.412Z,1.90
2018-09-11T11:03:10.744Z,1.50
2018-09-11T11:05:39.769Z,2.47
2018-09-11T11:08:08.061Z,3.67
2018-09-11T11:10:36.392Z,4.22
2018-09-11T11:13:04.917Z,3.72
2018-09-11T11:15:33.127Z,2.27
2018-09-11T11:18:01.344Z,4.05
2018-09-11T11:20:29.570Z,3.25
2018-09-11T11:22:57.813Z,2.10
2018-09-11T11:25:26.039Z,2.72
2018-09-11T11:27:54.359Z,3.05
2018-09-11T11:30:22.591Z,2.72
2018-09-11T11:32:50.924Z,3.65
2018-09-11T11:35:19.176Z,3.00
2018-09-11T11:37:47.368Z,3.00
2018-09-11T11:40:15.506Z,3.98
2018-09-11T11:42:43.694Z,2.52
2018-09-11T11:45:12.666Z,3.55
2018-09-11T11:47:41.189Z,3.90
2018-09-11T11:50:16.171Z,3.85
2018-09-11T11:52:44.337Z,2.92
2018-09-11T11:55:12.605Z,1.80
2018-09-11T11:57:40.651Z,3.37
2018-09-11T12:00:09.017Z,4.90
2018-09-11T12:02:37.165Z,3.27
2018-09-11T12:05:05.465Z,2.85
2018-09-11T12:07:34.073Z,5.40
2018-09-11T12:10:02.267Z,2.92
2018-09-11T12:12:30.456Z,2.87
2018-09-11T12:14:58.623Z,5.28
2018-09-11T12:17:26.782Z,4.15
2018-09-11T12:19:55.132Z,5.83
2018-09-11T12:22:23.576Z,5.00
2018-09-11T12:24:51.818Z,2.15
2018-09-11T12:27:20.070Z,4.40
2018-09-11T12:29:48.181Z,4.28
2018-09-11T12:32:16.467Z,4.97
2018-09-11T12:34:44.728Z,4.40
2018-09-11T12:37:13.007Z,3.60
2018-09-11T12:39:41.175Z,3.72
2018-09-11T12:42:09.549Z,4.12
2018-09-11T12:44:37.778Z,6.20
2018-09-11T12:47:07.198Z,6.83
2018-09-11T12:49:35.777Z,3.90
2018-09-11T12:52:03.920Z,4.05
2018-09-11T12:54:32.137Z,4.20
2018-09-11T12:57:00.282Z,4.95
2018-09-11T12:59:28.601Z,4.83
2018-09-11T13:01:56.937Z,3.02
2018-09-11T13:04:25.185Z,3.85
2018-09-11T13:06:53.981Z,4.35
2018-09-11T13:09:22.276Z,4.50
2018-09-11T13:11:50.552Z,2.72
2018-09-11T13:14:19.044Z,4.28
2018-09-11T13:16:47.341Z,2.25
2018-09-11T13:19:15.611Z,5.85
2018-09-11T13:21:44.594Z,3.90
2018-09-11T13:24:13.047Z,6.45
2018-09-11T13:26:41.247Z,2.40
2018-09-11T13:29:09.476Z,2.40
2018-09-11T13:31:37.723Z,4.55
2018-09-11T13:34:06.174Z,3.77
2018-09-11T13:36:34.474Z,3.77
2018-09-11T13:39:04.093Z,2.67
2018-09-11T13:41:32.238Z,3.75
2018-09-11T13:44:00.510Z,4.87
2018-09-11T13:46:28.782Z,4.75
2018-09-11T13:48:57.799Z,3.22
2018-09-11T13:51:26.053Z,4.17
2018-09-11T13:53:54.315Z,6.47
2018-09-11T13:56:22.459Z,3.85
2018-09-11T13:58:50.647Z,6.00
2018-09-11T14:01:18.797Z,4.35
2018-09-11T14:03:46.966Z,5.90
2018-09-11T14:06:15.201Z,5.65
2018-09-11T14:08:44.040Z,2.83
2018-09-11T14:11:12.440Z,5.92
2018-09-11T14:13:40.693Z,2.67
2018-09-11T14:16:08.857Z,2.50
2018-09-11T14:18:37.073Z,3.95
2018-09-11T14:21:06.141Z,3.85
2018-09-11T14:23:34.239Z,2.17
2018-09-11T14:26:03.316Z,4.17
2018-09-11T14:28:32.496Z,3.83
2018-09-11T14:31:00.666Z,3.58
2018-09-11T14:33:28.884Z,2.75
2018-09-11T14:35:57.181Z,4.17
2018-09-11T14:38:25.514Z,4.08
2018-09-11T14:40:53.775Z,3.65
2018-09-11T14:43:21.980Z,2.62
2018-09-11T14:45:50.245Z,4.20
2018-09-11T14:48:18.394Z,2.65
2018-09-11T14:50:46.556Z,3.05
2018-09-11T14:53:14.689Z,2.72
2018-09-11T14:55:42.833Z,3.10
2018-09-11T14:58:11.307Z,3.92
2018-09-11T15:00:39.505Z,2.47
2018-09-11T15:03:07.730Z,18.50
2018-09-11T15:05:35.984Z,3.20
2018-09-11T15:08:04.214Z,2.37
2018-09-11T15:10:32.499Z,3.83
2018-09-11T15:13:00.755Z,3.27
2018-09-11T15:15:28.991Z,3.17
2018-09-11T15:17:57.819Z,4.67
2018-09-11T15:20:26.024Z,3.77
2018-09-11T15:22:54.280Z,2.10
2018-09-11T15:25:22.543Z,2.75
2018-09-11T15:27:50.748Z,2.77
2018-09-11T15:30:19.011Z,3.72
2018-09-11T15:32:47.247Z,6.28
2018-09-11T15:35:15.387Z,3.98
2018-09-11T15:37:43.567Z,3.47
2018-09-11T15:40:11.819Z,2.62
2018-09-11T15:42:39.941Z,3.05
2018-09-11T15:45:08.089Z,3.12
2018-09-11T15:47:37.169Z,3.52
2018-09-11T15:50:05.436Z,2.83
2018-09-11T15:52:33.731Z,3.65
2018-09-11T15:55:01.894Z,3.20
2018-09-11T15:57:30.112Z,2.22
2018-09-11T15:59:58.199Z,2.40
2018-09-11T16:02:26.384Z,2.93
2018-09-11T16:04:54.590Z,3.00
2018-09-11T16:07:23.101Z,3.47
2018-09-11T16:09:51.359Z,3.37
2018-09-11T16:12:19.617Z,2.72
2018-09-11T16:14:47.893Z,4.70
2018-09-11T16:17:16.100Z,2.30
2018-09-11T16:19:44.365Z,1.70
2018-09-11T16:22:12.550Z,2.83
2018-09-11T16:24:40.945Z,4.27
2018-09-11T16:27:09.290Z,2.23
2018-09-11T16:29:37.530Z,3.30
2018-09-11T16:32:05.784Z,3.50
2018-09-11T16:34:35.088Z,3.03
2018-09-11T16:37:04.234Z,4.07
2018-09-11T16:39:32.481Z,2.83
2018-09-11T16:42:00.664Z,5.80
2018-09-11T16:44:28.900Z,2.57
2018-09-11T16:46:57.206Z,3.17
2018-09-11T16:49:25.426Z,3.33
2018-09-11T16:51:53.640Z,1.97
2018-09-11T16:54:21.869Z,3.50
2018-09-11T16:56:50.066Z,2.17
2018-09-11T16:59:18.247Z,2.63
2018-09-11T17:01:46.368Z,2.70
2018-09-11T17:04:14.536Z,3.20
2018-09-11T17:06:42.672Z,2.53
2018-09-11T17:09:10.810Z,4.53
2018-09-11T17:11:39.070Z,2.37
2018-09-11T17:14:07.208Z,3.50
2018-09-11T17:16:35.425Z,3.37
2018-09-11T17:19:03.610Z,4.50
2018-09-11T17:21:31.686Z,2.27
2018-09-11T17:23:59.979Z,2.00
2018-09-11T17:26:28.091Z,4.43
2018-09-11T17:28:56.354Z,3.67
2018-09-11T17:31:24.496Z,2.50
2018-09-11T17:33:52.627Z,2.77
2018-09-11T17:36:21.480Z,3.73
2018-09-11T17:38:49.691Z,3.90
2018-09-11T17:41:17.837Z,4.00
2018-09-11T17:43:46.075Z,3.00
2018-09-11T17:46:14.250Z,4.13
2018-09-11T17:48:42.615Z,4.40
2018-09-11T17:51:10.731Z,5.03
2018-09-11T17:53:38.898Z,4.17
2018-09-11T17:56:07.066Z,6.27
2018-09-11T17:58:35.395Z,3.80
2018-09-11T18:01:03.663Z,3.70
2018-09-11T18:03:33.567Z,3.17
2018-09-11T18:06:01.875Z,2.93
2018-09-11T18:08:30.175Z,2.50
2018-09-11T18:10:58.381Z,3.40
2018-09-11T18:13:26.513Z,2.63
2018-09-11T18:15:54.871Z,2.63
2018-09-11T18:18:23.842Z,4.47
2018-09-11T18:20:52.289Z,5.00
2018-09-11T18:23:20.514Z,2.80
2018-09-11T18:25:48.802Z,3.93
2018-09-11T18:28:16.987Z,3.80
2018-09-11T18:30:45.180Z,2.70
2018-09-11T18:33:13.270Z,3.00
2018-09-11T18:35:41.458Z,3.80
2018-09-11T18:38:09.618Z,5.53
2018-09-11T18:40:37.756Z,3.13
2018-09-11T18:43:06.165Z,4.67
2018-09-11T18:45:34.486Z,2.77
2018-09-11T18:48:02.924Z,3.70
2018-09-11T18:50:31.109Z,4.83
2018-09-11T18:52:59.345Z,3.53
2018-09-11T18:55:27.479Z,7.87
2018-09-11T18:57:55.681Z,4.53
2018-09-11T19:00:28.408Z,4.33
2018-09-11T19:02:58.312Z,3.60
2018-09-11T19:05:27.363Z,4.17
2018-09-11T19:07:55.924Z,8.47
2018-09-11T19:10:24.214Z,5.20
2018-09-11T19:12:52.384Z,5.40
2018-09-11T19:15:20.780Z,4.20
2018-09-11T19:17:48.949Z,2.20
2018-09-11T19:20:17.377Z,5.03
2018-09-11T19:22:46.244Z,2.23
2018-09-11T19:25:14.560Z,2.30
2018-09-11T19:27:43.653Z,4.23
2018-09-11T19:30:12.049Z,2.20
2018-09-11T19:32:40.655Z,2.07
2018-09-11T19:35:08.966Z,3.23
2018-09-11T19:37:37.513Z,3.43
2018-09-11T19:40:06.613Z,4.13
2018-09-11T19:42:35.417Z,3.23
2018-09-11T19:45:03.957Z,5.30
2018-09-11T19:47:32.196Z,2.33
2018-09-11T19:50:00.467Z,2.50
2018-09-11T19:52:28.967Z,5.03
2018-09-11T19:54:57.107Z,2.57
2018-09-11T19:57:25.371Z,3.20
2018-09-11T19:59:54.387Z,2.40
2018-09-11T20:02:22.561Z,3.10
2018-09-11T20:04:50.885Z,2.23
2018-09-11T20:07:18.933Z,4.83
2018-09-11T20:09:47.797Z,3.03
2018-09-11T20:12:16.065Z,2.80
2018-09-11T20:14:44.328Z,4.70
2018-09-11T20:17:12.470Z,4.00
2018-09-11T20:19:40.611Z,3.43
2018-09-11T20:22:09.966Z,5.27
2018-09-11T20:24:38.107Z,3.43
2018-09-11T20:27:07.421Z,1.90
2018-09-11T20:29:35.588Z,2.40
2018-09-11T20:32:03.841Z,2.27
2018-09-11T20:34:31.998Z,2.93
2018-09-11T20:37:00.169Z,3.90
2018-09-11T20:39:28.354Z,2.27
2018-09-11T20:41:57.107Z,2.40
2018-09-11T20:44:25.395Z,4.00
2018-09-11T20:46:53.623Z,3.57
2018-09-11T20:49:21.793Z,2.10
2018-09-11T20:51:50.056Z,3.03
2018-09-11T20:54:18.280Z,4.07
2018-09-11T20:56:46.550Z,2.87
2018-09-11T20:59:14.883Z,3.20
2018-09-11T21:01:43.125Z,3.07
2018-09-11T21:04:11.252Z,3.03
2018-09-11T21:06:39.498Z,4.30
2018-09-11T21:09:08.592Z,3.03
2018-09-11T21:11:36.795Z,3.47
2018-09-11T21:14:04.880Z,4.33
2018-09-11T21:16:33.240Z,2.70
2018-09-11T21:19:01.340Z,2.33
2018-09-11T21:21:29.530Z,2.90
2018-09-11T21:23:57.659Z,4.20
2018-09-11T21:26:26.005Z,4.40
2018-09-11T21:28:54.217Z,3.53
2018-09-11T21:31:22.495Z,3.70
2018-09-11T21:33:50.735Z,4.13
2018-09-11T21:36:19.127Z,3.63
2018-09-11T21:38:47.247Z,3.40
2018-09-11T21:41:15.538Z,3.33
2018-09-11T21:43:43.793Z,3.73
2018-09-11T21:46:12.257Z,3.47
2018-09-11T21:48:41.026Z,2.90
2018-09-11T21:51:09.137Z,3.50
2018-09-11T21:53:38.087Z,3.90
2018-09-11T21:56:06.264Z,6.23
2018-09-11T21:58:35.650Z,3.70
2018-09-11T22:01:09.806Z,5.13
2018-09-11T22:03:38.218Z,4.63
2018-09-11T22:06:06.656Z,4.70
2018-09-11T22:08:35.289Z,4.80
2018-09-11T22:11:03.616Z,3.87
2018-09-11T22:13:31.926Z,4.07
2018-09-11T22:16:00.228Z,4.43
2018-09-11T22:18:28.772Z,4.10
2018-09-11T22:20:57.305Z,5.00
2018-09-11T22:23:25.541Z,5.23
2018-09-11T22:25:53.763Z,4.63
2018-09-11T22:28:22.043Z,6.97
2018-09-11T22:30:50.245Z,3.37
2018-09-11T22:33:18.442Z,6.30
2018-09-11T22:35:46.973Z,8.07
2018-09-11T22:38:15.117Z,5.83
2018-09-11T22:40:43.373Z,3.90
2018-09-11T22:43:11.530Z,3.57
2018-09-11T22:45:39.883Z,5.83
2018-09-11T22:48:08.005Z,2.73
2018-09-11T22:50:36.348Z,11.00
2018-09-11T22:53:04.491Z,4.47
2018-09-11T22:55:32.815Z,4.10
2018-09-11T22:58:00.940Z,4.30
2018-09-11T23:00:29.102Z,4.13
2018-09-11T23:02:57.365Z,5.57
2018-09-11T23:05:25.646Z,4.30
2018-09-11T23:07:53.813Z,5.10
2018-09-11T23:10:22.154Z,6.10
2018-09-11T23:12:50.289Z,4.50
2018-09-11T23:15:18.601Z,7.00
2018-09-11T23:17:46.801Z,3.53
2018-09-11T23:20:15.130Z,4.10
2018-09-11T23:22:43.765Z,3.33
2018-09-11T23:25:12.082Z,5.23
2018-09-11T23:27:40.281Z,3.47
2018-09-11T23:30:08.587Z,5.70
2018-09-11T23:32:36.944Z,3.70
2018-09-11T23:35:05.532Z,4.43
2018-09-11T23:37:33.735Z,3.50
2018-09-11T23:40:01.976Z,5.50
2018-09-11T23:42:30.309Z,4.60
2018-09-11T23:44:58.624Z,3.43
2018-09-11T23:47:26.746Z,5.67
2018-09-11T23:49:55.058Z,5.27
2018-09-11T23:52:23.228Z,5.33
2018-09-11T23:54:51.470Z,3.30
2018-09-11T23:57:19.776Z,4.30
2018-09-11T23:59:48.071Z,5.03
